Time;durP1;ratioP1;P1;durP2;ratioP2;P2;SDS_P1;SDS_P2;PMS_P1;PMS_P2;Temp;Humidity;BMP_temperature;BMP_pressure;BME280_temperature;BME280_humidity;BME280_pressure;Samples;Min_cycle;Max_cycle;Signal;HPM_P1;HPM_P2
2021/06/07 00:01:06;;;;;;;5.38;2.63;;;17.30;79.20;;;;;;5094683;28;20027;-73
2021/06/07 00:03:32;;;;;;;5.55;2.95;;;17.30;78.70;;;;;;5094837;28;20028;-73
2021/06/07 00:05:58;;;;;;;4.13;2.67;;;17.30;78.40;;;;;;5094645;28;20108;-73
2021/06/07 00:08:23;;;;;;;5.13;2.58;;;17.40;78.00;;;;;;5094440;28;20016;-73
2021/06/07 00:10:49;;;;;;;5.78;2.83;;;17.40;77.80;;;;;;5094400;28;20024;-73
2021/06/07 00:13:15;;;;;;;7.45;2.90;;;17.40;77.80;;;;;;5095041;28;20065;-73
2021/06/07 00:15:42;;;;;;;4.55;2.65;;;17.50;77.60;;;;;;5109709;28;20016;-73
2021/06/07 00:18:08;;;;;;;6.05;3.20;;;17.50;77.50;;;;;;5094679;28;20020;-73
2021/06/07 00:20:38;;;;;;;6.38;3.10;;;17.50;77.60;;;;;;5093677;28;20032;-73
2021/06/07 00:23:05;;;;;;;6.03;3.08;;;17.50;77.60;;;;;;5093948;28;20040;-73
2021/06/07 00:25:32;;;;;;;6.57;3.53;;;17.50;77.70;;;;;;5089822;28;20029;-73
2021/06/07 00:27:57;;;;;;;4.60;2.90;;;17.50;77.70;;;;;;5089442;28;20024;-73
2021/06/07 00:30:23;;;;;;;4.93;3.17;;;17.50;77.80;;;;;;5094380;28;20050;-73
2021/06/07 00:32:49;;;;;;;6.22;3.30;;;17.50;78.00;;;;;;5094009;28;20031;-73
2021/06/07 00:35:26;;;;;;;4.97;3.13;;;17.50;78.30;;;;;;5092331;28;20105;-73
2021/06/07 00:37:53;;;;;;;7.53;3.10;;;17.50;78.40;;;;;;5108586;28;20116;-73
2021/06/07 00:40:22;;;;;;;5.63;3.00;;;17.50;78.50;;;;;;5094137;28;20035;-73
2021/06/07 00:42:48;;;;;;;6.13;3.38;;;17.40;78.60;;;;;;5108966;28;20111;-73
2021/06/07 00:45:26;;;;;;;6.22;3.05;;;17.40;78.60;;;;;;5093832;28;20103;-73
2021/06/07 00:47:54;;;;;;;5.78;3.20;;;17.50;78.80;;;;;;5093629;28;20028;-73
2021/06/07 00:50:29;;;;;;;6.97;3.45;;;17.50;78.90;;;;;;5093860;28;20038;-73
2021/06/07 00:53:01;;;;;;;6.15;3.25;;;17.50;79.00;;;;;;5093935;28;20081;-73
2021/06/07 00:55:30;;;;;;;4.68;3.33;;;17.40;79.10;;;;;;5092386;28;20119;-73
2021/06/07 00:57:56;;;;;;;5.47;3.20;;;17.40;79.40;;;;;;5093779;28;20038;-73
2021/06/07 01:00:24;;;;;;;4.43;3.00;;;17.50;79.60;;;;;;5092768;28;20450;-73
2021/06/07 01:02:50;;;;;;;6.65;3.10;;;17.40;79.70;;;;;;5109250;28;20060;-73
2021/06/07 01:05:17;;;;;;;5.00;2.83;;;17.40;79.80;;;;;;5108954;28;20040;-73
2021/06/07 01:07:42;;;;;;;5.93;3.10;;;17.40;80.10;;;;;;5094184;28;20481;-72
2021/06/07 01:10:09;;;;;;;5.97;3.00;;;17.40;80.40;;;;;;5092950;28;20032;-73
2021/06/07 01:12:34;;;;;;;3.70;2.75;;;17.40;80.40;;;;;;5093548;28;20053;-73
2021/06/07 01:15:01;;;;;;;5.22;3.00;;;17.40;80.50;;;;;;5092854;28;20032;-73
2021/06/07 01:17:27;;;;;;;4.88;3.08;;;17.40;80.80;;;;;;5092059;28;20458;-73
2021/06/07 01:19:54;;;;;;;5.13;2.97;;;17.40;80.80;;;;;;5093362;28;20085;-73
2021/06/07 01:22:20;;;;;;;4.60;2.70;;;17.40;80.90;;;;;;5093018;28;20401;-73
2021/06/07 01:24:46;;;;;;;5.15;3.10;;;17.40;81.00;;;;;;5093120;28;20061;-73
2021/06/07 01:27:11;;;;;;;4.50;2.88;;;17.30;81.10;;;;;;5092530;28;20016;-73
2021/06/07 01:29:37;;;;;;;4.40;3.00;;;17.30;81.30;;;;;;5092784;28;20054;-73
2021/06/07 01:32:04;;;;;;;3.80;2.70;;;17.40;81.60;;;;;;5093439;28;20023;-72
2021/06/07 01:34:31;;;;;;;4.90;3.05;;;17.30;81.50;;;;;;5092441;28;20027;-72
2021/06/07 01:36:57;;;;;;;4.95;3.22;;;17.40;81.90;;;;;;5093084;28;20097;-72
2021/06/07 01:39:27;;;;;;;6.45;3.20;;;17.30;82.00;;;;;;5092470;28;20208;-72
2021/06/07 01:41:54;;;;;;;4.38;2.92;;;17.30;82.00;;;;;;5092592;28;20020;-73
2021/06/07 01:44:20;;;;;;;7.15;3.33;;;17.30;82.30;;;;;;5092488;28;20464;-73
2021/06/07 01:46:46;;;;;;;4.13;2.75;;;17.30;82.50;;;;;;5108338;28;20030;-73
2021/06/07 01:49:12;;;;;;;4.45;3.00;;;17.30;82.70;;;;;;5092855;28;20458;-73
2021/06/07 01:51:38;;;;;;;5.45;3.00;;;17.20;82.90;;;;;;5092423;28;20020;-73
2021/06/07 01:54:04;;;;;;;4.57;2.88;;;17.30;83.20;;;;;;5093236;28;20484;-73
2021/06/07 01:56:30;;;;;;;4.63;2.80;;;17.20;83.20;;;;;;5107610;28;20055;-73
2021/06/07 01:58:56;;;;;;;6.40;3.22;;;17.20;83.40;;;;;;5091532;28;20060;-73
2021/06/07 02:01:25;;;;;;;5.75;3.00;;;17.20;83.60;;;;;;5092330;28;20069;-73
2021/06/07 02:03:51;;;;;;;5.00;3.13;;;17.20;83.90;;;;;;5092318;28;20102;-72
2021/06/07 02:06:25;;;;;;;4.63;2.90;;;17.20;83.90;;;;;;5108659;28;20047;-73
2021/06/07 02:08:54;;;;;;;5.03;3.15;;;17.20;84.00;;;;;;5091326;28;20032;-73
2021/06/07 02:11:24;;;;;;;6.03;3.13;;;17.10;84.40;;;;;;5092710;28;20020;-72
2021/06/07 02:13:52;;;;;;;5.32;3.00;;;17.20;84.90;;;;;;5093220;28;20030;-72
2021/06/07 02:16:26;;;;;;;4.28;2.78;;;17.20;85.10;;;;;;5092642;28;20024;-72
2021/06/07 02:18:53;;;;;;;6.00;3.10;;;17.20;85.20;;;;;;5092249;28;20040;-72
2021/06/07 02:21:21;;;;;;;4.65;3.10;;;17.20;85.40;;;;;;5091230;28;20040;-72
2021/06/07 02:23:48;;;;;;;5.05;2.70;;;17.30;85.50;;;;;;5092214;28;20027;-72
2021/06/07 02:26:14;;;;;;;4.10;3.10;;;17.20;85.50;;;;;;5092544;28;20028;-73
2021/06/07 02:28:48;;;;;;;4.55;2.80;;;17.30;85.90;;;;;;5092044;28;20028;-72
2021/06/07 02:31:14;;;;;;;6.50;3.20;;;17.30;86.00;;;;;;5091482;28;20444;-72
2021/06/07 02:33:40;;;;;;;6.63;3.10;;;17.30;85.80;;;;;;5091099;28;20479;-72
2021/06/07 02:36:06;;;;;;;6.55;2.92;;;17.30;85.90;;;;;;5107313;28;20108;-73
2021/06/07 02:38:31;;;;;;;5.97;3.00;;;17.40;85.90;;;;;;5090384;28;20135;-73
2021/06/07 02:40:57;;;;;;;6.50;2.88;;;17.40;85.90;;;;;;5090707;28;20032;-73
2021/06/07 02:43:23;;;;;;;4.97;2.80;;;17.40;85.80;;;;;;5091327;28;20020;-72
2021/06/07 02:45:49;;;;;;;4.35;2.63;;;17.50;85.80;;;;;;5091220;28;20028;-72
2021/06/07 02:48:15;;;;;;;4.15;2.67;;;17.50;85.60;;;;;;5092098;28;20031;-72
2021/06/07 02:50:43;;;;;;;5.05;2.90;;;17.50;85.50;;;;;;5090630;28;20382;-72
2021/06/07 02:53:09;;;;;;;5.82;3.75;;;17.50;85.40;;;;;;5091998;28;20113;-72
2021/06/07 02:55:41;;;;;;;6.03;3.13;;;17.60;85.40;;;;;;5092362;28;20073;-73
2021/06/07 02:58:07;;;;;;;5.90;3.08;;;17.70;85.50;;;;;;5091343;28;20377;-72
2021/06/07 03:00:40;;;;;;;5.40;2.92;;;17.70;85.30;;;;;;5092019;28;20027;-73
2021/06/07 03:03:07;;;;;;;5.30;3.05;;;17.80;85.10;;;;;;5094610;28;20028;-73
2021/06/07 03:05:34;;;;;;;5.38;3.00;;;17.80;85.00;;;;;;5094587;28;20098;-73
2021/06/07 03:08:01;;;;;;;4.93;3.03;;;17.80;84.90;;;;;;5095547;28;20373;-72
2021/06/07 03:10:27;;;;;;;6.53;3.17;;;17.90;84.70;;;;;;5094276;28;20038;-75
2021/06/07 03:12:53;;;;;;;4.30;3.00;;;17.90;84.50;;;;;;5095654;28;20065;-72
2021/06/07 03:15:22;;;;;;;6.65;3.55;;;17.90;84.40;;;;;;5095418;28;20024;-72
2021/06/07 03:17:48;;;;;;;6.75;4.90;;;17.90;84.30;;;;;;5095425;28;20019;-72
2021/06/07 03:20:16;;;;;;;6.60;2.97;;;18.00;84.20;;;;;;5094991;28;20024;-72
2021/06/07 03:22:42;;;;;;;6.30;3.20;;;18.00;83.90;;;;;;5094686;28;20098;-72
2021/06/07 03:25:09;;;;;;;8.77;3.92;;;18.00;83.90;;;;;;5094883;28;20089;-73
2021/06/07 03:27:36;;;;;;;5.30;3.42;;;18.00;83.80;;;;;;5093659;28;20484;-72
2021/06/07 03:30:04;;;;;;;5.72;3.38;;;18.00;83.80;;;;;;5095416;28;20028;-72
2021/06/07 03:32:30;;;;;;;5.07;3.20;;;18.00;83.50;;;;;;5094151;28;20529;-72
2021/06/07 03:34:55;;;;;;;5.95;3.15;;;18.00;83.50;;;;;;5095008;28;20099;-73
2021/06/07 03:37:21;;;;;;;8.35;3.83;;;18.10;83.60;;;;;;5094745;28;20102;-74
2021/06/07 03:39:48;;;;;;;4.78;3.30;;;18.20;83.20;;;;;;5094915;28;20032;-71
2021/06/07 03:42:14;;;;;;;7.20;3.50;;;18.20;83.00;;;;;;5095177;28;20028;-71
2021/06/07 03:44:40;;;;;;;7.15;3.50;;;18.30;83.00;;;;;;5093560;28;20028;-72
2021/06/07 03:47:06;;;;;;;6.15;3.33;;;18.30;82.90;;;;;;5094204;28;20385;-73
2021/06/07 03:49:31;;;;;;;6.65;4.00;;;18.40;82.70;;;;;;5095170;28;20035;-71
2021/06/07 03:51:57;;;;;;;6.75;3.60;;;18.40;82.50;;;;;;5094690;28;20032;-71
2021/06/07 03:54:23;;;;;;;6.82;3.97;;;18.50;82.40;;;;;;5093979;28;20024;-73
2021/06/07 03:56:48;;;;;;;7.00;3.72;;;18.60;82.40;;;;;;5094007;28;20398;-73
2021/06/07 03:59:14;;;;;;;5.43;3.80;;;18.60;81.90;;;;;;5094521;28;20028;-71
2021/06/07 04:01:41;;;;;;;12.85;7.93;;;18.80;81.90;;;;;;5093951;28;20036;-72
2021/06/07 04:04:07;;;;;;;8.32;4.15;;;19.00;81.60;;;;;;5094707;28;20105;-71
2021/06/07 04:06:32;;;;;;;9.90;4.28;;;19.10;81.00;;;;;;5093845;28;20029;-72
2021/06/07 04:09:01;;;;;;;8.77;4.25;;;19.40;80.60;;;;;;5094531;28;20039;-72
2021/06/07 04:11:27;;;;;;;6.57;3.97;;;19.60;79.80;;;;;;5094235;28;20113;-72
2021/06/07 04:13:53;;;;;;;8.25;5.28;;;19.70;79.00;;;;;;5093997;28;20051;-72
2021/06/07 04:16:19;;;;;;;6.15;3.70;;;19.90;78.80;;;;;;5093857;28;20108;-72
2021/06/07 04:18:45;;;;;;;8.68;4.00;;;20.00;78.10;;;;;;5093707;28;20121;-72
2021/06/07 04:21:10;;;;;;;6.32;3.47;;;20.00;77.50;;;;;;5093019;28;20081;-73
2021/06/07 04:23:36;;;;;;;5.85;3.45;;;20.00;77.00;;;;;;5090286;28;20583;-73
2021/06/07 04:26:03;;;;;;;6.68;3.60;;;20.00;76.70;;;;;;5093058;28;20024;-74
2021/06/07 04:28:28;;;;;;;7.45;3.55;;;20.10;76.80;;;;;;5107031;28;20098;-75
2021/06/07 04:30:54;;;;;;;5.88;3.40;;;20.40;77.40;;;;;;5092970;28;20036;-75
2021/06/07 04:33:20;;;;;;;6.45;3.35;;;20.70;75.70;;;;;;5092433;28;20418;-75
2021/06/07 04:35:46;;;;;;;7.38;3.90;;;20.80;74.40;;;;;;5093375;28;20017;-75
2021/06/07 04:38:12;;;;;;;6.10;3.90;;;20.80;73.90;;;;;;5093545;28;20036;-75
2021/06/07 04:40:40;;;;;;;4.80;3.10;;;21.00;73.70;;;;;;5092301;28;20127;-75
2021/06/07 04:43:10;;;;;;;5.82;3.22;;;21.20;73.70;;;;;;5093330;28;20099;-75
2021/06/07 04:45:38;;;;;;;6.88;3.28;;;21.70;73.00;;;;;;5093559;28;20024;-76
2021/06/07 04:48:04;;;;;;;7.60;3.42;;;22.40;72.60;;;;;;5092813;28;20059;-74
2021/06/07 04:50:32;;;;;;;5.10;3.15;;;23.20;70.20;;;;;;5093436;28;20382;-74
2021/06/07 04:53:00;;;;;;;10.43;3.30;;;23.50;67.70;;;;;;5091763;28;20028;-75
2021/06/07 04:55:47;;;;;;;7.80;3.08;;;23.50;66.80;;;;;;5093467;28;20111;-75
2021/06/07 04:58:15;;;;;;;7.53;3.20;;;23.50;65.90;;;;;;5092971;28;20036;-75
2021/06/07 05:00:43;;;;;;;6.93;4.43;;;23.40;66.00;;;;;;5078960;28;20059;-71
2021/06/07 05:03:09;;;;;;;6.28;3.60;;;23.40;65.50;;;;;;5077729;28;20042;-73
2021/06/07 05:05:35;;;;;;;7.13;3.58;;;23.50;65.80;;;;;;5084398;28;20060;-74
2021/06/07 05:08:02;;;;;;;7.70;3.47;;;23.70;65.10;;;;;;5089167;28;20051;-84
2021/06/07 05:10:27;;;;;;;9.15;3.15;;;23.80;65.00;;;;;;5092336;28;20077;-74
2021/06/07 05:12:53;;;;;;;5.47;3.47;;;24.30;64.90;;;;;;5089746;28;20423;-73
2021/06/07 05:15:19;;;;;;;5.80;3.30;;;24.80;64.00;;;;;;5090346;28;20016;-78
2021/06/07 05:17:45;;;;;;;5.72;3.30;;;25.20;63.20;;;;;;5091505;28;20020;-74
2021/06/07 05:20:14;;;;;;;4.70;3.10;;;25.60;62.30;;;;;;5089501;28;20085;-69
2021/06/07 05:22:40;;;;;;;4.85;2.95;;;25.60;61.00;;;;;;5089393;28;20419;-69
2021/06/07 05:25:06;;;;;;;4.65;2.92;;;25.60;60.40;;;;;;5088927;28;20033;-78
2021/06/07 05:27:33;;;;;;;5.53;2.55;;;25.50;60.10;;;;;;5108178;28;20031;-74
2021/06/07 05:30:00;;;;;;;5.40;2.90;;;25.60;60.20;;;;;;5070338;28;20052;-75
2021/06/07 05:32:27;;;;;;;5.60;3.10;;;25.60;60.00;;;;;;5088296;28;20031;-77
2021/06/07 05:34:53;;;;;;;3.75;2.80;;;25.50;59.20;;;;;;5091919;28;20386;-76
2021/06/07 05:37:19;;;;;;;4.53;2.90;;;25.50;59.20;;;;;;5091645;28;20027;-77
2021/06/07 05:39:45;;;;;;;6.88;2.90;;;25.60;59.40;;;;;;5091125;28;20035;-77
2021/06/07 05:42:11;;;;;;;4.78;2.95;;;25.70;59.10;;;;;;5088313;28;20031;-77
2021/06/07 05:44:36;;;;;;;5.38;3.15;;;25.70;59.40;;;;;;5091997;28;20473;-77
2021/06/07 05:47:02;;;;;;;7.97;2.90;;;25.80;58.90;;;;;;5091905;28;20082;-77
2021/06/07 05:49:28;;;;;;;4.40;2.65;;;26.10;58.60;;;;;;5080275;28;20485;-77
2021/06/07 05:51:54;;;;;;;5.15;3.08;;;26.30;58.10;;;;;;5091133;28;20106;-77
2021/06/07 05:54:19;;;;;;;4.28;2.67;;;26.40;57.40;;;;;;5089151;28;20024;-73
2021/06/07 05:56:45;;;;;;;4.32;2.78;;;26.30;57.10;;;;;;5086471;28;20032;-74
2021/06/07 05:59:11;;;;;;;4.85;2.90;;;26.10;57.10;;;;;;5090993;28;20040;-76
2021/06/07 06:01:36;;;;;;;7.07;3.05;;;25.80;57.50;;;;;;5081594;28;20028;-76
2021/06/07 06:04:03;;;;;;;4.75;2.88;;;25.60;57.50;;;;;;5088204;28;20101;-74
2021/06/07 06:06:29;;;;;;;9.13;3.08;;;25.50;57.90;;;;;;5090310;28;20040;-69
2021/06/07 06:08:54;;;;;;;5.50;3.17;;;25.10;58.20;;;;;;5090666;28;20020;-72
2021/06/07 06:11:21;;;;;;;5.55;3.10;;;24.90;58.60;;;;;;5086334;28;20024;-72
2021/06/07 06:13:48;;;;;;;8.35;3.20;;;24.60;59.10;;;;;;5087297;28;20028;-68
2021/06/07 06:16:14;;;;;;;5.28;3.40;;;24.50;59.80;;;;;;5087869;28;20132;-81
2021/06/07 06:18:40;;;;;;;6.15;3.00;;;24.50;60.20;;;;;;5089700;28;20021;-75
2021/06/07 06:21:06;;;;;;;6.75;3.33;;;24.40;60.00;;;;;;5086469;28;20024;-75
2021/06/07 06:23:33;;;;;;;6.40;2.75;;;24.20;60.30;;;;;;5084322;28;20044;-75
2021/06/07 06:25:58;;;;;;;5.32;2.72;;;24.30;61.00;;;;;;5104925;28;20119;-76
2021/06/07 06:28:24;;;;;;;4.90;2.92;;;24.30;61.30;;;;;;5086335;28;20103;-76
2021/06/07 06:30:50;;;;;;;4.28;2.45;;;24.50;61.70;;;;;;5084214;28;20066;-74
2021/06/07 06:33:16;;;;;;;5.88;2.90;;;25.00;61.10;;;;;;5084625;28;20085;-70
2021/06/07 06:35:42;;;;;;;4.97;2.70;;;25.70;60.30;;;;;;5092050;28;20024;-70
2021/06/07 06:38:08;;;;;;;5.28;3.08;;;26.10;59.20;;;;;;5096603;28;20111;-74
2021/06/07 06:40:37;;;;;;;5.07;2.90;;;26.30;58.60;;;;;;5095993;28;20036;-75
2021/06/07 06:43:04;;;;;;;6.95;2.85;;;26.30;57.40;;;;;;5095772;28;20515;-75
2021/06/07 06:45:31;;;;;;;5.30;2.75;;;26.10;57.50;;;;;;5096247;28;20020;-75
2021/06/07 06:47:58;;;;;;;6.88;2.83;;;26.20;57.90;;;;;;5095469;28;20028;-74
2021/06/07 06:50:34;;;;;;;6.32;2.92;;;26.10;57.40;;;;;;5111430;28;20497;-74
2021/06/07 06:53:04;;;;;;;6.82;2.97;;;26.10;57.50;;;;;;5090220;28;20035;-75
2021/06/07 06:55:30;;;;;;;4.93;2.85;;;26.40;57.50;;;;;;5096491;28;20031;-74
2021/06/07 06:57:55;;;;;;;6.32;2.72;;;26.70;57.10;;;;;;5092911;28;20028;-74
2021/06/07 07:00:22;;;;;;;4.82;3.00;;;26.80;56.10;;;;;;5091478;28;20052;-74
2021/06/07 07:02:49;;;;;;;6.28;2.58;;;26.70;55.80;;;;;;5092110;28;20099;-74
2021/06/07 07:05:14;;;;;;;4.22;2.60;;;26.60;55.80;;;;;;5095094;28;20066;-74
2021/06/07 07:07:40;;;;;;;3.45;2.55;;;26.60;55.60;;;;;;5092533;28;20120;-74
2021/06/07 07:10:07;;;;;;;6.72;2.38;;;26.80;55.60;;;;;;5091280;28;20020;-74
2021/06/07 07:12:33;;;;;;;5.85;2.90;;;27.20;55.90;;;;;;5095269;28;20024;-75
2021/06/07 07:14:58;;;;;;;3.88;2.60;;;27.60;55.40;;;;;;5092679;28;20488;-75
2021/06/07 07:17:24;;;;;;;5.43;2.50;;;27.70;54.40;;;;;;5092558;28;20052;-75
2021/06/07 07:19:51;;;;;;;7.65;2.80;;;28.20;55.10;;;;;;5093137;28;20428;-76
2021/06/07 07:22:17;;;;;;;4.20;2.50;;;28.70;53.80;;;;;;5093833;28;20389;-75
2021/06/07 07:24:45;;;;;;;6.63;2.83;;;29.20;52.40;;;;;;5092412;28;20074;-75
2021/06/07 07:27:16;;;;;;;5.50;2.70;;;29.40;51.70;;;;;;5091036;28;20112;-76
2021/06/07 07:29:46;;;;;;;3.20;2.45;;;29.40;50.80;;;;;;5095195;28;20089;-76
2021/06/07 07:32:15;;;;;;;5.55;2.72;;;29.50;51.40;;;;;;5083974;28;20024;-75
2021/06/07 07:34:41;;;;;;;5.95;2.70;;;29.70;51.00;;;;;;5093725;28;20020;-76
2021/06/07 07:37:09;;;;;;;4.47;2.50;;;29.80;50.20;;;;;;5093829;28;20028;-75
2021/06/07 07:39:35;;;;;;;3.70;2.35;;;29.70;50.20;;;;;;5093461;28;20035;-76
2021/06/07 07:42:20;;;;;;;3.70;2.60;;;29.60;49.60;;;;;;5093993;28;20043;-75
2021/06/07 07:44:46;;;;;;;3.88;2.47;;;29.40;49.90;;;;;;5092972;28;20027;-75
2021/06/07 07:47:12;;;;;;;3.22;2.25;;;29.30;50.20;;;;;;5093901;28;20115;-74
2021/06/07 07:49:39;;;;;;;3.40;2.47;;;29.30;51.00;;;;;;5094567;28;20028;-79
2021/06/07 07:52:06;;;;;;;4.18;2.70;;;29.60;51.10;;;;;;5095117;28;20085;-82
2021/06/07 07:54:33;;;;;;;6.13;2.58;;;30.00;50.10;;;;;;5094342;28;20103;-69
2021/06/07 07:57:01;;;;;;;3.92;2.80;;;29.90;49.30;;;;;;5093823;28;20039;-65
2021/06/07 07:59:27;;;;;;;4.25;2.67;;;29.80;49.80;;;;;;5093236;28;20040;-69
2021/06/07 08:01:53;;;;;;;4.28;2.60;;;29.90;50.00;;;;;;5094771;28;20455;-78
2021/06/07 08:04:18;;;;;;;4.30;2.55;;;30.10;50.10;;;;;;5093923;28;20050;-78
2021/06/07 08:06:44;;;;;;;4.88;2.90;;;30.60;49.80;;;;;;5090932;28;20036;-77
2021/06/07 08:09:14;;;;;;;3.97;2.67;;;31.20;49.10;;;;;;5084537;28;20103;-78
2021/06/07 08:11:40;;;;;;;4.32;2.80;;;31.30;48.20;;;;;;5080834;28;20028;-88
2021/06/07 08:14:06;;;;;;;7.35;2.80;;;31.50;47.70;;;;;;5093754;28;20030;-78
2021/06/07 08:16:31;;;;;;;4.38;2.60;;;31.40;47.40;;;;;;5087194;28;20032;-76
2021/06/07 08:18:57;;;;;;;7.35;2.45;;;31.50;47.00;;;;;;5092803;28;20486;-76
2021/06/07 08:21:23;;;;;;;5.18;2.35;;;31.60;47.20;;;;;;5092657;28;20020;-77
2021/06/07 08:23:49;;;;;;;3.83;2.22;;;31.80;46.50;;;;;;5091454;28;20028;-75
2021/06/07 08:26:15;;;;;;;2.28;1.80;;;31.70;45.50;;;;;;5091328;28;20074;-77
2021/06/07 08:28:41;;;;;;;3.50;1.90;;;31.90;45.00;;;;;;5093230;28;20019;-77
2021/06/07 08:31:06;;;;;;;3.92;2.40;;;31.80;44.40;;;;;;5093992;28;20370;-76
2021/06/07 08:33:35;;;;;;;2.85;2.00;;;31.70;44.80;;;;;;5092361;28;20020;-76
2021/06/07 08:36:02;;;;;;;3.15;2.00;;;31.70;44.80;;;;;;5094183;28;20020;-77
2021/06/07 08:38:28;;;;;;;2.88;2.10;;;31.80;45.00;;;;;;5092965;28;20028;-74
2021/06/07 08:40:54;;;;;;;3.38;2.30;;;32.10;45.20;;;;;;5094320;28;20106;-75
2021/06/07 08:43:24;;;;;;;6.63;2.42;;;32.30;45.30;;;;;;5093200;28;20043;-76
2021/06/07 08:45:50;;;;;;;4.72;2.30;;;32.50;44.50;;;;;;5094174;28;20381;-75
2021/06/07 08:48:17;;;;;;;6.28;2.45;;;32.40;44.40;;;;;;5094531;28;20024;-75
2021/06/07 08:50:43;;;;;;;3.35;2.40;;;31.90;44.40;;;;;;5094314;28;20028;-75
2021/06/07 08:53:10;;;;;;;2.75;2.15;;;31.50;45.60;;;;;;5093978;28;20478;-75
2021/06/07 08:55:37;;;;;;;3.65;2.42;;;31.20;44.80;;;;;;5094492;28;20025;-76
2021/06/07 08:58:05;;;;;;;4.50;2.35;;;30.70;45.10;;;;;;5093616;28;20028;-76
2021/06/07 09:00:38;;;;;;;6.00;2.58;;;30.30;46.20;;;;;;5092078;28;20169;-77
2021/06/07 09:03:10;;;;;;;3.00;2.15;;;30.30;47.50;;;;;;5094630;28;20028;-76
2021/06/07 09:05:39;;;;;;;4.07;2.33;;;30.30;47.30;;;;;;5094525;28;20046;-76
2021/06/07 09:08:07;;;;;;;5.60;2.65;;;30.50;47.40;;;;;;5092261;28;20035;-76
2021/06/07 09:10:39;;;;;;;4.57;2.13;;;30.60;46.60;;;;;;5092478;28;20116;-77
2021/06/07 09:13:07;;;;;;;6.32;2.53;;;30.60;47.40;;;;;;5094055;28;20032;-76
2021/06/07 09:15:49;;;;;;;6.32;2.47;;;31.10;47.10;;;;;;5092439;28;20506;-76
2021/06/07 09:18:33;;;;;;;6.32;2.47;;;31.10;45.70;;;;;;5093274;28;20024;-75
2021/06/07 09:21:07;;;;;;;4.25;2.42;;;30.90;46.00;;;;;;5093875;28;20039;-76
2021/06/07 09:23:50;;;;;;;3.45;2.63;;;30.50;46.80;;;;;;5093468;28;20058;-76
2021/06/07 09:26:30;;;;;;;7.35;3.03;;;30.70;47.20;;;;;;5092397;28;20051;-76
2021/06/07 09:28:59;;;;;;;4.78;2.42;;;31.10;47.80;;;;;;5092085;28;20478;-76
2021/06/07 09:31:34;;;;;;;5.13;2.50;;;31.30;47.30;;;;;;5092795;28;20422;-76
2021/06/07 09:34:04;;;;;;;6.65;2.17;;;31.80;47.00;;;;;;5093064;28;20065;-76
2021/06/07 09:36:31;;;;;;;4.85;2.50;;;32.20;46.30;;;;;;5109043;28;20032;-77
2021/06/07 09:39:12;;;;;;;3.15;2.33;;;32.60;45.50;;;;;;5093592;28;20036;-76
2021/06/07 09:41:57;;;;;;;3.55;2.00;;;33.10;44.30;;;;;;5092104;28;20109;-76
2021/06/07 09:44:23;;;;;;;3.88;2.10;;;33.30;43.70;;;;;;5091894;28;20024;-76
2021/06/07 09:46:50;;;;;;;4.78;2.00;;;33.30;42.50;;;;;;5091938;28;20535;-77
2021/06/07 09:49:19;;;;;;;3.45;1.77;;;33.10;43.00;;;;;;5108723;28;20036;-76
2021/06/07 09:51:57;;;;;;;2.97;2.05;;;33.20;42.70;;;;;;5091885;28;20384;-78
2021/06/07 09:54:24;;;;;;;2.67;1.85;;;33.20;43.50;;;;;;5092835;28;20077;-76
2021/06/07 09:57:01;;;;;;;3.53;1.90;;;33.60;42.80;;;;;;5108992;28;20028;-77
2021/06/07 09:59:33;;;;;;;2.80;2.00;;;33.50;42.60;;;;;;5091778;28;20063;-78
2021/06/07 10:02:00;;;;;;;3.50;1.80;;;33.40;42.60;;;;;;5091513;28;20066;-77
2021/06/07 10:04:50;;;;;;;3.50;2.17;;;33.20;42.70;;;;;;5093230;28;20032;-75
2021/06/07 10:07:18;;;;;;;3.15;1.80;;;32.70;42.10;;;;;;5081274;28;20105;-77
2021/06/07 10:10:12;;;;;;;2.95;2.00;;;32.10;42.70;;;;;;5091308;28;20398;-76
2021/06/07 10:12:39;;;;;;;2.75;1.90;;;31.40;43.60;;;;;;5091478;28;20043;-76
2021/06/07 10:15:07;;;;;;;3.88;2.03;;;30.90;44.80;;;;;;5092880;28;20099;-76
2021/06/07 10:17:33;;;;;;;3.33;1.98;;;30.40;45.40;;;;;;5091994;28;20020;-77
2021/06/07 10:22:46;;;;;;;3.05;1.90;;;30.00;46.50;;;;;;5051112;28;20051;-75
2021/06/07 10:25:13;;;;;;;4.05;2.20;;;30.60;46.10;;;;;;5091029;28;20372;-75
2021/06/07 10:27:39;;;;;;;3.13;1.83;;;31.20;46.20;;;;;;5093018;28;20020;-76
2021/06/07 10:30:20;;;;;;;2.45;1.85;;;31.70;44.90;;;;;;5091481;28;20131;-76
2021/06/07 10:32:47;;;;;;;1.98;1.60;;;32.00;44.20;;;;;;5091573;28;20039;-76
2021/06/07 10:35:26;;;;;;;2.65;2.00;;;32.10;43.10;;;;;;5091315;28;20359;-77
2021/06/07 10:38:10;;;;;;;3.00;1.77;;;32.40;43.70;;;;;;5092923;28;20034;-77
2021/06/07 10:40:47;;;;;;;2.58;1.55;;;32.60;42.80;;;;;;5092342;28;20111;-76
2021/06/07 10:43:14;;;;;;;1.98;1.48;;;32.70;42.50;;;;;;5079042;28;20020;-76
2021/06/07 10:45:42;;;;;;;2.55;1.55;;;32.30;41.50;;;;;;5092746;28;20469;-76
2021/06/07 10:48:10;;;;;;;2.10;1.50;;;31.60;42.20;;;;;;5090901;28;20071;-76
2021/06/07 10:50:44;;;;;;;3.22;1.30;;;31.10;42.10;;;;;;5092848;28;20098;-76
2021/06/07 10:53:20;;;;;;;;;;;31.00;42.90;;;;;;5091795;28;20031;-76
2021/06/07 10:55:46;;;;;;;3.85;1.50;;;31.10;43.10;;;;;;5091276;28;19955;-76
2021/06/07 10:58:13;;;;;;;2.50;1.70;;;30.90;43.30;;;;;;5090943;28;20074;-75
2021/06/07 11:00:46;;;;;;;3.83;2.10;;;30.70;43.60;;;;;;5092016;28;20040;-75
2021/06/07 11:03:19;;;;;;;4.68;1.92;;;30.70;43.90;;;;;;5092457;28;20028;-75
2021/06/07 11:05:47;;;;;;;3.47;1.80;;;30.70;44.20;;;;;;5092759;28;20028;-75
2021/06/07 11:08:25;;;;;;;5.38;2.10;;;30.20;44.20;;;;;;5108102;28;20024;-75
2021/06/07 11:11:01;;;;;;;6.78;2.20;;;29.50;45.40;;;;;;5090877;28;20032;-75
2021/06/07 11:13:43;;;;;;;7.53;2.50;;;28.50;46.70;;;;;;5090957;28;20051;-75
2021/06/07 11:16:09;;;;;;;7.63;2.60;;;27.80;48.10;;;;;;5092570;28;20038;-75
2021/06/07 11:18:37;;;;;;;8.18;2.38;;;27.00;50.10;;;;;;5090913;28;20114;-75
2021/06/07 11:21:09;;;;;;;4.97;2.33;;;26.20;51.90;;;;;;5092416;28;20047;-75
2021/06/07 11:23:38;;;;;;;6.60;2.60;;;25.40;54.30;;;;;;5094211;28;20055;-74
2021/06/07 11:26:20;;;;;;;4.95;2.60;;;24.70;56.60;;;;;;5095784;28;20024;-74
2021/06/07 11:28:49;;;;;;;4.65;2.58;;;24.10;59.20;;;;;;5095514;28;20031;-74
2021/06/07 11:31:14;;;;;;;4.05;2.63;;;23.60;60.70;;;;;;5096117;28;20027;-75
2021/06/07 11:33:51;;;;;;;5.47;2.50;;;23.20;62.10;;;;;;5093728;28;20016;-74
2021/06/07 11:36:35;;;;;;;3.85;2.67;;;22.80;63.70;;;;;;5094399;28;20028;-74
2021/06/07 11:39:01;;;;;;;5.00;2.53;;;22.40;64.80;;;;;;5095498;28;20470;-76
2021/06/07 11:41:45;;;;;;;4.13;2.58;;;22.10;65.70;;;;;;5094317;28;20029;-76
2021/06/07 11:44:13;;;;;;;4.50;2.38;;;21.90;66.50;;;;;;5095102;28;20534;-74
2021/06/07 11:46:38;;;;;;;4.22;2.50;;;21.80;66.80;;;;;;5095635;28;20077;-75
2021/06/07 11:49:09;;;;;;;6.07;2.65;;;21.70;67.30;;;;;;5094356;28;20024;-75
2021/06/07 11:51:36;;;;;;;4.43;2.70;;;21.70;68.10;;;;;;5095004;28;20378;-75
2021/06/07 11:54:26;;;;;;;4.13;2.58;;;21.70;68.70;;;;;;5095051;28;20392;-75
2021/06/07 11:57:00;;;;;;;5.47;3.00;;;21.70;69.00;;;;;;5081942;28;20432;-74
2021/06/07 11:59:38;;;;;;;5.00;2.80;;;21.80;69.30;;;;;;5094621;28;20432;-74
2021/06/07 12:02:17;;;;;;;4.80;2.55;;;21.80;69.00;;;;;;5094020;28;20470;-74
2021/06/07 12:04:43;;;;;;;3.40;2.30;;;22.00;69.40;;;;;;5094600;28;20021;-73
2021/06/07 12:07:11;;;;;;;3.90;2.70;;;22.20;68.70;;;;;;5095518;28;20517;-73
2021/06/07 12:09:42;;;;;;;4.63;2.70;;;22.40;68.40;;;;;;5093774;28;20471;-73
2021/06/07 12:12:09;;;;;;;5.25;3.00;;;22.60;68.00;;;;;;5111263;28;20100;-75
2021/06/07 12:14:39;;;;;;;4.53;3.00;;;22.80;67.90;;;;;;5093514;28;20031;-74
2021/06/07 12:17:06;;;;;;;6.40;3.40;;;23.10;67.80;;;;;;5093731;28;20020;-74
2021/06/07 12:19:40;;;;;;;6.10;3.50;;;23.30;66.80;;;;;;5093345;28;20435;-73
2021/06/07 12:22:23;;;;;;;4.65;3.75;;;23.70;65.80;;;;;;5093482;28;20453;-74
2021/06/07 12:30:37;;;;;;;5.47;3.53;;;24.80;62.00;;;;;;5093036;28;20089;-73
2021/06/07 12:33:03;;;;;;;4.63;3.40;;;24.80;61.70;;;;;;5093655;28;20024;-76
2021/06/07 12:35:35;;;;;;;5.13;3.70;;;24.80;61.70;;;;;;5093949;28;20093;-76
2021/06/07 12:38:04;;;;;;;7.03;4.00;;;24.80;61.10;;;;;;5092089;28;20099;-79
2021/06/07 12:40:41;;;;;;;6.05;3.50;;;24.90;60.60;;;;;;5092360;28;20457;-75
2021/06/07 12:43:07;;;;;;;5.45;3.33;;;25.10;60.20;;;;;;5093614;28;20031;-75
2021/06/07 12:45:39;;;;;;;5.65;3.50;;;25.20;59.80;;;;;;5093899;28;20028;-76
2021/06/07 12:48:25;;;;;;;5.18;3.42;;;25.20;59.50;;;;;;5093943;28;20020;-75
2021/06/07 12:50:57;;;;;;;5.13;3.22;;;25.30;58.90;;;;;;5092783;28;20394;-75
2021/06/07 12:53:25;;;;;;;4.90;3.53;;;25.30;58.60;;;;;;5092600;28;20028;-75
2021/06/07 12:55:53;;;;;;;5.82;3.70;;;25.30;58.50;;;;;;5092551;28;20443;-75
2021/06/07 12:58:21;;;;;;;4.47;3.53;;;25.20;58.40;;;;;;5093551;28;20080;-75
2021/06/07 13:00:51;;;;;;;7.18;3.55;;;24.90;58.80;;;;;;5098030;28;20055;-68
2021/06/07 13:03:20;;;;;;;5.47;4.30;;;24.50;60.00;;;;;;5086315;28;20020;-83